sensor_id;sensor_type;location;lat;lon;timestamp;P1;durP1;ratioP1;P2;durP2;ratioP2
57071;SDS011;42956;51.366;11.298;2023-03-31T00:00:50;4.32;;;1.80;;
57071;SDS011;42956;51.366;11.298;2023-03-31T00:03:20;3.25;;;1.23;;
57071;SDS011;42956;51.366;11.298;2023-03-31T00:05:53;3.88;;;1.50;;
57071;SDS011;42956;51.366;11.298;2023-03-31T00:08:21;3.47;;;2.10;;
57071;SDS011;42956;51.366;11.298;2023-03-31T00:10:49;5.25;;;1.60;;
57071;SDS011;42956;51.366;11.298;2023-03-31T00:13:17;4.30;;;1.88;;
57071;SDS011;42956;51.366;11.298;2023-03-31T00:15:45;5.57;;;1.70;;
57071;SDS011;42956;51.366;11.298;2023-03-31T00:18:13;3.33;;;1.25;;
57071;SDS011;42956;51.366;11.298;2023-03-31T00:20:42;6.82;;;1.85;;
57071;SDS011;42956;51.366;11.298;2023-03-31T00:23:10;4.45;;;1.60;;
57071;SDS011;42956;51.366;11.298;2023-03-31T00:25:43;8.68;;;1.52;;
57071;SDS011;42956;51.366;11.298;2023-03-31T00:28:11;6.03;;;1.70;;
57071;SDS011;42956;51.366;11.298;2023-03-31T00:30:39;7.18;;;2.20;;
57071;SDS011;42956;51.366;11.298;2023-03-31T00:33:06;2.70;;;1.50;;
57071;SDS011;42956;51.366;11.298;2023-03-31T00:35:35;7.05;;;1.95;;
57071;SDS011;42956;51.366;11.298;2023-03-31T00:38:06;5.70;;;1.58;;
57071;SDS011;42956;51.366;11.298;2023-03-31T00:40:35;5.43;;;1.70;;
57071;SDS011;42956;51.366;11.298;2023-03-31T00:43:04;4.28;;;1.88;;
57071;SDS011;42956;51.366;11.298;2023-03-31T00:45:43;5.63;;;1.42;;
57071;SDS011;42956;51.366;11.298;2023-03-31T00:48:12;6.38;;;1.92;;
57071;SDS011;42956;51.366;11.298;2023-03-31T00:50:45;13.00;;;3.15;;
57071;SDS011;42956;51.366;11.298;2023-03-31T00:53:16;4.70;;;1.70;;
57071;SDS011;42956;51.366;11.298;2023-03-31T00:55:46;5.28;;;1.67;;
57071;SDS011;42956;51.366;11.298;2023-03-31T00:58:16;9.32;;;2.00;;
57071;SDS011;42956;51.366;11.298;2023-03-31T01:00:46;5.40;;;1.67;;
57071;SDS011;42956;51.366;11.298;2023-03-31T01:03:14;9.30;;;3.88;;
57071;SDS011;42956;51.366;11.298;2023-03-31T01:05:44;8.05;;;1.90;;
57071;SDS011;42956;51.366;11.298;2023-03-31T01:08:13;6.50;;;1.73;;
57071;SDS011;42956;51.366;11.298;2023-03-31T01:10:44;11.18;;;2.88;;
57071;SDS011;42956;51.366;11.298;2023-03-31T01:13:13;5.80;;;2.25;;
57071;SDS011;42956;51.366;11.298;2023-03-31T01:15:42;5.97;;;1.50;;
57071;SDS011;42956;51.366;11.298;2023-03-31T01:18:10;6.28;;;1.60;;
57071;SDS011;42956;51.366;11.298;2023-03-31T01:20:41;9.60;;;1.77;;
57071;SDS011;42956;51.366;11.298;2023-03-31T01:23:38;3.28;;;1.67;;
57071;SDS011;42956;51.366;11.298;2023-03-31T01:26:19;10.75;;;2.38;;
57071;SDS011;42956;51.366;11.298;2023-03-31T01:28:52;8.77;;;2.03;;
57071;SDS011;42956;51.366;11.298;2023-03-31T01:31:45;10.57;;;2.20;;
57071;SDS011;42956;51.366;11.298;2023-03-31T01:37:14;12.68;;;2.40;;
57071;SDS011;42956;51.366;11.298;2023-03-31T01:39:56;5.35;;;2.47;;
57071;SDS011;42956;51.366;11.298;2023-03-31T01:42:27;6.38;;;1.75;;
57071;SDS011;42956;51.366;11.298;2023-03-31T01:45:00;8.57;;;1.58;;
57071;SDS011;42956;51.366;11.298;2023-03-31T01:47:30;7.10;;;2.13;;
57071;SDS011;42956;51.366;11.298;2023-03-31T01:50:00;10.75;;;1.92;;
57071;SDS011;42956;51.366;11.298;2023-03-31T01:52:31;9.95;;;1.83;;
57071;SDS011;42956;51.366;11.298;2023-03-31T01:55:06;6.10;;;2.22;;
57071;SDS011;42956;51.366;11.298;2023-03-31T01:57:36;4.40;;;1.35;;
57071;SDS011;42956;51.366;11.298;2023-03-31T02:00:07;9.10;;;1.70;;
57071;SDS011;42956;51.366;11.298;2023-03-31T02:02:37;7.15;;;1.70;;
57071;SDS011;42956;51.366;11.298;2023-03-31T02:05:08;8.98;;;2.55;;
57071;SDS011;42956;51.366;11.298;2023-03-31T02:07:38;5.32;;;1.50;;
57071;SDS011;42956;51.366;11.298;2023-03-31T02:10:09;10.18;;;1.73;;
57071;SDS011;42956;51.366;11.298;2023-03-31T02:12:38;7.78;;;1.98;;
57071;SDS011;42956;51.366;11.298;2023-03-31T02:15:07;8.02;;;2.10;;
57071;SDS011;42956;51.366;11.298;2023-03-31T02:17:37;11.38;;;2.28;;
57071;SDS011;42956;51.366;11.298;2023-03-31T02:20:08;5.63;;;1.70;;
57071;SDS011;42956;51.366;11.298;2023-03-31T02:22:39;6.07;;;1.60;;
57071;SDS011;42956;51.366;11.298;2023-03-31T02:25:08;4.45;;;1.65;;
57071;SDS011;42956;51.366;11.298;2023-03-31T02:27:39;8.23;;;2.00;;
57071;SDS011;42956;51.366;11.298;2023-03-31T02:30:08;4.80;;;1.48;;
57071;SDS011;42956;51.366;11.298;2023-03-31T02:32:37;6.40;;;1.92;;
57071;SDS011;42956;51.366;11.298;2023-03-31T02:35:06;5.53;;;1.70;;
57071;SDS011;42956;51.366;11.298;2023-03-31T02:37:34;12.02;;;2.55;;
57071;SDS011;42956;51.366;11.298;2023-03-31T02:40:04;8.32;;;2.47;;
57071;SDS011;42956;51.366;11.298;2023-03-31T02:42:36;7.40;;;2.08;;
57071;SDS011;42956;51.366;11.298;2023-03-31T02:45:06;6.63;;;1.73;;
57071;SDS011;42956;51.366;11.298;2023-03-31T02:47:34;3.65;;;1.27;;
57071;SDS011;42956;51.366;11.298;2023-03-31T02:50:02;2.78;;;1.40;;
57071;SDS011;42956;51.366;11.298;2023-03-31T02:52:33;6.50;;;1.40;;
57071;SDS011;42956;51.366;11.298;2023-03-31T02:55:16;11.07;;;1.70;;
57071;SDS011;42956;51.366;11.298;2023-03-31T02:57:49;13.88;;;2.78;;
57071;SDS011;42956;51.366;11.298;2023-03-31T03:00:23;6.40;;;1.70;;
57071;SDS011;42956;51.366;11.298;2023-03-31T03:02:57;7.07;;;1.70;;
57071;SDS011;42956;51.366;11.298;2023-03-31T03:05:31;4.45;;;1.38;;
57071;SDS011;42956;51.366;11.298;2023-03-31T03:08:04;4.60;;;1.70;;
57071;SDS011;42956;51.366;11.298;2023-03-31T03:10:34;6.95;;;1.77;;
57071;SDS011;42956;51.366;11.298;2023-03-31T03:13:08;5.22;;;1.75;;
57071;SDS011;42956;51.366;11.298;2023-03-31T03:15:43;2.45;;;1.55;;
57071;SDS011;42956;51.366;11.298;2023-03-31T03:18:12;7.40;;;1.65;;
57071;SDS011;42956;51.366;11.298;2023-03-31T03:20:42;4.72;;;1.40;;
57071;SDS011;42956;51.366;11.298;2023-03-31T03:23:15;6.50;;;1.83;;
57071;SDS011;42956;51.366;11.298;2023-03-31T03:25:43;3.80;;;1.70;;
57071;SDS011;42956;51.366;11.298;2023-03-31T03:28:11;14.68;;;2.10;;
57071;SDS011;42956;51.366;11.298;2023-03-31T03:30:39;5.05;;;1.30;;
57071;SDS011;42956;51.366;11.298;2023-03-31T03:33:08;5.00;;;1.58;;
57071;SDS011;42956;51.366;11.298;2023-03-31T03:35:36;6.93;;;1.45;;
57071;SDS011;42956;51.366;11.298;2023-03-31T03:38:04;4.43;;;1.75;;
57071;SDS011;42956;51.366;11.298;2023-03-31T03:40:32;2.80;;;1.60;;
57071;SDS011;42956;51.366;11.298;2023-03-31T03:43:00;9.38;;;2.33;;
57071;SDS011;42956;51.366;11.298;2023-03-31T03:45:28;4.25;;;1.13;;
57071;SDS011;42956;51.366;11.298;2023-03-31T03:47:56;2.88;;;1.40;;
57071;SDS011;42956;51.366;11.298;2023-03-31T03:50:25;5.22;;;1.23;;
57071;SDS011;42956;51.366;11.298;2023-03-31T03:52:53;4.50;;;1.40;;
57071;SDS011;42956;51.366;11.298;2023-03-31T03:55:21;3.83;;;1.63;;
57071;SDS011;42956;51.366;11.298;2023-03-31T03:57:49;6.43;;;1.98;;
57071;SDS011;42956;51.366;11.298;2023-03-31T04:00:17;8.45;;;2.95;;
57071;SDS011;42956;51.366;11.298;2023-03-31T04:02:45;8.00;;;1.65;;
57071;SDS011;42956;51.366;11.298;2023-03-31T04:05:13;4.25;;;1.38;;
57071;SDS011;42956;51.366;11.298;2023-03-31T04:07:42;8.35;;;1.27;;
57071;SDS011;42956;51.366;11.298;2023-03-31T04:10:10;8.02;;;1.55;;
57071;SDS011;42956;51.366;11.298;2023-03-31T04:12:38;6.10;;;1.92;;
57071;SDS011;42956;51.366;11.298;2023-03-31T04:15:06;7.53;;;2.05;;
57071;SDS011;42956;51.366;11.298;2023-03-31T04:17:34;4.45;;;1.38;;
57071;SDS011;42956;51.366;11.298;2023-03-31T04:20:04;4.55;;;1.55;;
57071;SDS011;42956;51.366;11.298;2023-03-31T04:22:35;9.80;;;1.27;;
57071;SDS011;42956;51.366;11.298;2023-03-31T04:25:08;4.50;;;1.35;;
57071;SDS011;42956;51.366;11.298;2023-03-31T04:27:40;6.72;;;1.50;;
57071;SDS011;42956;51.366;11.298;2023-03-31T04:30:13;4.13;;;1.52;;
57071;SDS011;42956;51.366;11.298;2023-03-31T04:32:51;4.22;;;1.40;;
57071;SDS011;42956;51.366;11.298;2023-03-31T04:35:20;4.72;;;2.42;;
57071;SDS011;42956;51.366;11.298;2023-03-31T04:37:49;4.65;;;2.25;;
57071;SDS011;42956;51.366;11.298;2023-03-31T04:40:19;6.20;;;2.20;;
57071;SDS011;42956;51.366;11.298;2023-03-31T04:42:47;5.75;;;1.70;;
57071;SDS011;42956;51.366;11.298;2023-03-31T04:45:15;3.15;;;1.48;;
57071;SDS011;42956;51.366;11.298;2023-03-31T04:47:43;7.85;;;1.77;;
57071;SDS011;42956;51.366;11.298;2023-03-31T04:50:11;5.28;;;1.45;;
57071;SDS011;42956;51.366;11.298;2023-03-31T04:52:42;2.55;;;1.20;;
57071;SDS011;42956;51.366;11.298;2023-03-31T04:55:10;3.10;;;1.20;;
57071;SDS011;42956;51.366;11.298;2023-03-31T04:57:39;4.65;;;1.33;;
57071;SDS011;42956;51.366;11.298;2023-03-31T05:00:08;3.40;;;1.35;;
57071;SDS011;42956;51.366;11.298;2023-03-31T05:02:37;4.20;;;1.42;;
57071;SDS011;42956;51.366;11.298;2023-03-31T05:05:05;8.57;;;1.58;;
57071;SDS011;42956;51.366;11.298;2023-03-31T05:07:32;3.70;;;1.25;;
57071;SDS011;42956;51.366;11.298;2023-03-31T05:10:00;6.28;;;1.55;;
57071;SDS011;42956;51.366;11.298;2023-03-31T05:12:28;3.10;;;1.05;;
57071;SDS011;42956;51.366;11.298;2023-03-31T05:14:58;4.32;;;1.25;;
57071;SDS011;42956;51.366;11.298;2023-03-31T05:17:30;8.20;;;1.20;;
57071;SDS011;42956;51.366;11.298;2023-03-31T05:19:58;10.38;;;1.23;;
57071;SDS011;42956;51.366;11.298;2023-03-31T05:22:26;2.20;;;1.10;;
57071;SDS011;42956;51.366;11.298;2023-03-31T05:24:54;5.35;;;1.52;;
57071;SDS011;42956;51.366;11.298;2023-03-31T05:27:21;7.25;;;1.70;;
57071;SDS011;42956;51.366;11.298;2023-03-31T05:29:50;4.93;;;1.70;;
57071;SDS011;42956;51.366;11.298;2023-03-31T05:32:19;3.05;;;1.38;;
57071;SDS011;42956;51.366;11.298;2023-03-31T05:34:47;6.28;;;2.00;;
57071;SDS011;42956;51.366;11.298;2023-03-31T05:37:18;5.00;;;2.38;;
57071;SDS011;42956;51.366;11.298;2023-03-31T05:39:46;4.25;;;1.75;;
57071;SDS011;42956;51.366;11.298;2023-03-31T05:42:14;5.03;;;1.23;;
57071;SDS011;42956;51.366;11.298;2023-03-31T05:44:42;3.38;;;1.33;;
57071;SDS011;42956;51.366;11.298;2023-03-31T05:47:10;3.17;;;1.10;;
57071;SDS011;42956;51.366;11.298;2023-03-31T05:49:39;2.63;;;1.08;;
57071;SDS011;42956;51.366;11.298;2023-03-31T05:52:07;2.85;;;1.10;;
57071;SDS011;42956;51.366;11.298;2023-03-31T05:54:35;5.10;;;1.58;;
57071;SDS011;42956;51.366;11.298;2023-03-31T05:57:03;6.07;;;2.58;;
57071;SDS011;42956;51.366;11.298;2023-03-31T05:59:34;3.58;;;1.27;;
57071;SDS011;42956;51.366;11.298;2023-03-31T06:02:02;4.82;;;1.60;;
57071;SDS011;42956;51.366;11.298;2023-03-31T06:04:29;5.57;;;1.55;;
57071;SDS011;42956;51.366;11.298;2023-03-31T06:06:59;6.95;;;1.63;;
57071;SDS011;42956;51.366;11.298;2023-03-31T06:09:27;2.45;;;1.13;;
57071;SDS011;42956;51.366;11.298;2023-03-31T06:11:55;5.10;;;1.50;;
57071;SDS011;42956;51.366;11.298;2023-03-31T06:14:24;2.45;;;1.40;;
57071;SDS011;42956;51.366;11.298;2023-03-31T06:16:51;2.63;;;1.70;;
57071;SDS011;42956;51.366;11.298;2023-03-31T06:19:23;5.97;;;2.00;;
57071;SDS011;42956;51.366;11.298;2023-03-31T06:21:51;10.55;;;2.47;;
57071;SDS011;42956;51.366;11.298;2023-03-31T06:24:20;5.60;;;1.98;;
57071;SDS011;42956;51.366;11.298;2023-03-31T06:26:48;2.10;;;1.25;;
57071;SDS011;42956;51.366;11.298;2023-03-31T06:29:19;4.93;;;2.25;;
57071;SDS011;42956;51.366;11.298;2023-03-31T06:31:47;4.82;;;2.20;;
57071;SDS011;42956;51.366;11.298;2023-03-31T06:34:15;5.50;;;1.50;;
57071;SDS011;42956;51.366;11.298;2023-03-31T06:36:46;2.42;;;1.42;;
57071;SDS011;42956;51.366;11.298;2023-03-31T06:39:14;4.80;;;1.80;;
57071;SDS011;42956;51.366;11.298;2023-03-31T06:41:43;4.40;;;1.70;;
57071;SDS011;42956;51.366;11.298;2023-03-31T06:44:11;3.60;;;1.55;;
57071;SDS011;42956;51.366;11.298;2023-03-31T06:46:42;5.65;;;2.10;;
57071;SDS011;42956;51.366;11.298;2023-03-31T06:49:09;4.95;;;1.67;;
57071;SDS011;42956;51.366;11.298;2023-03-31T06:51:37;8.45;;;2.05;;
57071;SDS011;42956;51.366;11.298;2023-03-31T06:54:06;5.07;;;1.83;;
57071;SDS011;42956;51.366;11.298;2023-03-31T06:56:34;3.53;;;1.65;;
57071;SDS011;42956;51.366;11.298;2023-03-31T06:59:03;4.55;;;2.03;;
57071;SDS011;42956;51.366;11.298;2023-03-31T07:01:31;3.67;;;1.58;;
57071;SDS011;42956;51.366;11.298;2023-03-31T07:04:03;8.43;;;2.30;;
57071;SDS011;42956;51.366;11.298;2023-03-31T07:06:31;4.93;;;1.27;;
57071;SDS011;42956;51.366;11.298;2023-03-31T07:08:59;3.67;;;1.63;;
57071;SDS011;42956;51.366;11.298;2023-03-31T07:11:27;4.68;;;1.52;;
57071;SDS011;42956;51.366;11.298;2023-03-31T07:13:55;5.50;;;2.00;;
57071;SDS011;42956;51.366;11.298;2023-03-31T07:16:24;3.67;;;1.80;;
57071;SDS011;42956;51.366;11.298;2023-03-31T07:18:52;3.22;;;2.42;;
57071;SDS011;42956;51.366;11.298;2023-03-31T07:21:25;6.07;;;1.60;;
57071;SDS011;42956;51.366;11.298;2023-03-31T07:23:52;7.18;;;2.20;;
57071;SDS011;42956;51.366;11.298;2023-03-31T07:26:20;3.70;;;1.77;;
57071;SDS011;42956;51.366;11.298;2023-03-31T07:28:49;6.10;;;1.88;;
57071;SDS011;42956;51.366;11.298;2023-03-31T07:31:17;4.45;;;1.60;;
57071;SDS011;42956;51.366;11.298;2023-03-31T07:33:47;4.22;;;2.10;;
57071;SDS011;42956;51.366;11.298;2023-03-31T07:36:14;10.18;;;2.45;;
57071;SDS011;42956;51.366;11.298;2023-03-31T07:38:45;5.03;;;1.92;;
57071;SDS011;42956;51.366;11.298;2023-03-31T07:41:17;5.40;;;2.22;;
57071;SDS011;42956;51.366;11.298;2023-03-31T07:43:46;5.47;;;1.90;;
57071;SDS011;42956;51.366;11.298;2023-03-31T07:46:15;5.45;;;2.50;;
57071;SDS011;42956;51.366;11.298;2023-03-31T07:48:44;5.15;;;1.70;;
57071;SDS011;42956;51.366;11.298;2023-03-31T07:51:14;8.40;;;1.90;;
57071;SDS011;42956;51.366;11.298;2023-03-31T07:53:42;7.60;;;2.47;;
57071;SDS011;42956;51.366;11.298;2023-03-31T07:56:11;5.47;;;2.33;;
57071;SDS011;42956;51.366;11.298;2023-03-31T07:58:39;6.63;;;2.22;;
57071;SDS011;42956;51.366;11.298;2023-03-31T08:01:07;10.10;;;2.50;;
57071;SDS011;42956;51.366;11.298;2023-03-31T08:03:36;9.20;;;2.30;;
57071;SDS011;42956;51.366;11.298;2023-03-31T08:06:04;4.32;;;2.15;;
57071;SDS011;42956;51.366;11.298;2023-03-31T08:08:34;8.98;;;1.95;;
57071;SDS011;42956;51.366;11.298;2023-03-31T08:11:04;5.40;;;2.08;;
57071;SDS011;42956;51.366;11.298;2023-03-31T08:13:32;7.88;;;1.95;;
57071;SDS011;42956;51.366;11.298;2023-03-31T08:16:00;7.32;;;2.05;;
57071;SDS011;42956;51.366;11.298;2023-03-31T08:18:28;7.10;;;2.80;;
57071;SDS011;42956;51.366;11.298;2023-03-31T08:20:56;5.15;;;1.95;;
57071;SDS011;42956;51.366;11.298;2023-03-31T08:23:24;4.47;;;1.80;;
57071;SDS011;42956;51.366;11.298;2023-03-31T08:25:53;7.43;;;1.60;;
57071;SDS011;42956;51.366;11.298;2023-03-31T08:28:21;5.05;;;1.70;;
57071;SDS011;42956;51.366;11.298;2023-03-31T08:30:51;6.72;;;1.98;;
57071;SDS011;42956;51.366;11.298;2023-03-31T08:33:19;5.75;;;1.75;;
57071;SDS011;42956;51.366;11.298;2023-03-31T08:35:48;6.28;;;2.22;;
57071;SDS011;42956;51.366;11.298;2023-03-31T08:38:16;6.07;;;1.88;;
57071;SDS011;42956;51.366;11.298;2023-03-31T08:40:43;7.57;;;2.42;;
57071;SDS011;42956;51.366;11.298;2023-03-31T08:43:14;7.80;;;2.20;;
57071;SDS011;42956;51.366;11.298;2023-03-31T08:45:44;4.43;;;2.25;;
57071;SDS011;42956;51.366;11.298;2023-03-31T08:48:16;3.70;;;1.80;;
57071;SDS011;42956;51.366;11.298;2023-03-31T08:50:47;6.13;;;1.97;;
57071;SDS011;42956;51.366;11.298;2023-03-31T08:53:19;8.60;;;2.42;;
57071;SDS011;42956;51.366;11.298;2023-03-31T08:55:50;5.95;;;1.75;;
57071;SDS011;42956;51.366;11.298;2023-03-31T08:58:26;4.20;;;2.17;;
57071;SDS011;42956;51.366;11.298;2023-03-31T09:00:55;7.85;;;2.47;;
57071;SDS011;42956;51.366;11.298;2023-03-31T09:03:27;6.53;;;1.83;;
57071;SDS011;42956;51.366;11.298;2023-03-31T09:05:58;7.50;;;2.65;;
57071;SDS011;42956;51.366;11.298;2023-03-31T09:08:40;5.55;;;1.60;;
57071;SDS011;42956;51.366;11.298;2023-03-31T09:11:12;4.72;;;2.50;;
57071;SDS011;42956;51.366;11.298;2023-03-31T09:13:46;6.75;;;2.55;;
57071;SDS011;42956;51.366;11.298;2023-03-31T09:16:18;6.20;;;2.33;;
57071;SDS011;42956;51.366;11.298;2023-03-31T09:18:51;5.88;;;2.30;;
57071;SDS011;42956;51.366;11.298;2023-03-31T09:21:21;4.43;;;1.88;;
57071;SDS011;42956;51.366;11.298;2023-03-31T09:23:50;6.22;;;2.40;;
57071;SDS011;42956;51.366;11.298;2023-03-31T09:26:24;6.25;;;1.70;;
57071;SDS011;42956;51.366;11.298;2023-03-31T09:28:54;9.57;;;2.22;;
57071;SDS011;42956;51.366;11.298;2023-03-31T09:31:24;6.55;;;1.90;;
57071;SDS011;42956;51.366;11.298;2023-03-31T09:33:53;4.63;;;1.80;;
57071;SDS011;42956;51.366;11.298;2023-03-31T09:36:27;7.80;;;1.70;;
57071;SDS011;42956;51.366;11.298;2023-03-31T09:38:55;6.05;;;2.25;;
57071;SDS011;42956;51.366;11.298;2023-03-31T09:41:23;3.80;;;1.70;;
57071;SDS011;42956;51.366;11.298;2023-03-31T09:43:51;10.00;;;2.20;;
57071;SDS011;42956;51.366;11.298;2023-03-31T09:46:23;6.35;;;2.80;;
57071;SDS011;42956;51.366;11.298;2023-03-31T09:48:53;11.70;;;3.40;;
57071;SDS011;42956;51.366;11.298;2023-03-31T09:51:25;7.10;;;2.08;;
57071;SDS011;42956;51.366;11.298;2023-03-31T09:53:56;6.28;;;2.50;;
57071;SDS011;42956;51.366;11.298;2023-03-31T09:56:31;6.88;;;2.40;;
57071;SDS011;42956;51.366;11.298;2023-03-31T09:59:00;4.93;;;2.20;;
57071;SDS011;42956;51.366;11.298;2023-03-31T10:01:31;5.03;;;1.83;;
57071;SDS011;42956;51.366;11.298;2023-03-31T10:04:02;4.93;;;2.13;;
57071;SDS011;42956;51.366;11.298;2023-03-31T10:06:36;4.15;;;1.40;;
57071;SDS011;42956;51.366;11.298;2023-03-31T10:09:08;7.22;;;1.88;;
57071;SDS011;42956;51.366;11.298;2023-03-31T10:11:37;4.57;;;1.83;;
57071;SDS011;42956;51.366;11.298;2023-03-31T10:14:09;5.32;;;2.28;;
57071;SDS011;42956;51.366;11.298;2023-03-31T10:16:43;7.82;;;2.08;;
57071;SDS011;42956;51.366;11.298;2023-03-31T10:19:17;5.15;;;2.25;;
57071;SDS011;42956;51.366;11.298;2023-03-31T10:21:46;11.35;;;3.00;;
57071;SDS011;42956;51.366;11.298;2023-03-31T10:24:17;8.32;;;3.00;;
57071;SDS011;42956;51.366;11.298;2023-03-31T10:26:45;6.00;;;2.40;;
57071;SDS011;42956;51.366;11.298;2023-03-31T10:29:17;6.93;;;3.15;;
57071;SDS011;42956;51.366;11.298;2023-03-31T10:31:48;4.50;;;1.52;;
57071;SDS011;42956;51.366;11.298;2023-03-31T10:34:17;5.03;;;2.15;;
57071;SDS011;42956;51.366;11.298;2023-03-31T10:36:46;5.32;;;2.00;;
57071;SDS011;42956;51.366;11.298;2023-03-31T10:39:15;4.70;;;2.67;;
57071;SDS011;42956;51.366;11.298;2023-03-31T10:41:47;8.63;;;1.67;;
57071;SDS011;42956;51.366;11.298;2023-03-31T10:44:32;6.13;;;2.17;;
57071;SDS011;42956;51.366;11.298;2023-03-31T10:47:10;7.10;;;2.15;;
57071;SDS011;42956;51.366;11.298;2023-03-31T10:49:43;3.42;;;1.98;;
57071;SDS011;42956;51.366;11.298;2023-03-31T10:52:16;3.88;;;2.03;;
57071;SDS011;42956;51.366;11.298;2023-03-31T10:54:48;5.93;;;2.30;;
57071;SDS011;42956;51.366;11.298;2023-03-31T10:57:16;4.05;;;2.08;;
57071;SDS011;42956;51.366;11.298;2023-03-31T10:59:48;4.28;;;1.55;;
57071;SDS011;42956;51.366;11.298;2023-03-31T11:02:31;5.72;;;1.67;;
57071;SDS011;42956;51.366;11.298;2023-03-31T11:05:09;3.22;;;1.45;;
57071;SDS011;42956;51.366;11.298;2023-03-31T11:07:43;5.35;;;1.83;;
57071;SDS011;42956;51.366;11.298;2023-03-31T11:10:20;4.07;;;1.33;;
57071;SDS011;42956;51.366;11.298;2023-03-31T11:12:51;6.55;;;1.58;;
57071;SDS011;42956;51.366;11.298;2023-03-31T11:15:23;3.22;;;1.80;;
57071;SDS011;42956;51.366;11.298;2023-03-31T11:17:56;6.85;;;1.70;;
57071;SDS011;42956;51.366;11.298;2023-03-31T11:20:27;1.95;;;1.60;;
57071;SDS011;42956;51.366;11.298;2023-03-31T11:22:58;2.88;;;1.88;;
57071;SDS011;42956;51.366;11.298;2023-03-31T11:25:30;5.40;;;2.35;;
57071;SDS011;42956;51.366;11.298;2023-03-31T11:28:18;5.35;;;2.20;;
57071;SDS011;42956;51.366;11.298;2023-03-31T11:30:49;5.32;;;1.50;;
57071;SDS011;42956;51.366;11.298;2023-03-31T11:33:25;11.10;;;3.78;;
57071;SDS011;42956;51.366;11.298;2023-03-31T11:36:00;6.00;;;3.10;;
57071;SDS011;42956;51.366;11.298;2023-03-31T11:38:37;9.68;;;3.50;;
57071;SDS011;42956;51.366;11.298;2023-03-31T11:41:10;14.20;;;6.07;;
57071;SDS011;42956;51.366;11.298;2023-03-31T11:43:41;7.90;;;3.10;;
57071;SDS011;42956;51.366;11.298;2023-03-31T11:46:10;9.82;;;5.32;;
57071;SDS011;42956;51.366;11.298;2023-03-31T11:48:42;20.50;;;9.65;;
57071;SDS011;42956;51.366;11.298;2023-03-31T11:51:13;11.98;;;4.93;;
57071;SDS011;42956;51.366;11.298;2023-03-31T11:53:42;12.27;;;6.07;;
57071;SDS011;42956;51.366;11.298;2023-03-31T11:56:13;7.68;;;3.53;;
57071;SDS011;42956;51.366;11.298;2023-03-31T11:58:43;8.52;;;4.68;;
57071;SDS011;42956;51.366;11.298;2023-03-31T12:01:14;3.97;;;3.28;;
57071;SDS011;42956;51.366;11.298;2023-03-31T12:03:49;3.97;;;2.08;;
57071;SDS011;42956;51.366;11.298;2023-03-31T12:06:18;9.48;;;3.15;;
57071;SDS011;42956;51.366;11.298;2023-03-31T12:08:49;6.32;;;3.03;;
57071;SDS011;42956;51.366;11.298;2023-03-31T12:11:21;4.38;;;2.25;;
57071;SDS011;42956;51.366;11.298;2023-03-31T12:13:54;2.92;;;2.08;;
57071;SDS011;42956;51.366;11.298;2023-03-31T12:16:24;1.67;;;1.50;;
57071;SDS011;42956;51.366;11.298;2023-03-31T12:18:58;2.28;;;1.38;;
57071;SDS011;42956;51.366;11.298;2023-03-31T12:23:55;1.65;;;1.48;;
57071;SDS011;42956;51.366;11.298;2023-03-31T12:26:29;3.28;;;1.90;;
57071;SDS011;42956;51.366;11.298;2023-03-31T12:29:02;3.75;;;2.03;;
57071;SDS011;42956;51.366;11.298;2023-03-31T12:31:32;5.57;;;1.67;;
57071;SDS011;42956;51.366;11.298;2023-03-31T12:34:04;2.50;;;1.90;;
57071;SDS011;42956;51.366;11.298;2023-03-31T12:36:37;1.48;;;1.20;;
57071;SDS011;42956;51.366;11.298;2023-03-31T12:39:12;1.63;;;1.35;;
57071;SDS011;42956;51.366;11.298;2023-03-31T12:41:46;2.25;;;1.15;;
57071;SDS011;42956;51.366;11.298;2023-03-31T12:44:25;3.88;;;1.70;;
57071;SDS011;42956;51.366;11.298;2023-03-31T12:47:03;2.55;;;1.65;;
57071;SDS011;42956;51.366;11.298;2023-03-31T12:49:40;2.92;;;1.75;;
57071;SDS011;42956;51.366;11.298;2023-03-31T12:52:14;1.98;;;1.63;;
57071;SDS011;42956;51.366;11.298;2023-03-31T12:54:54;3.70;;;2.13;;
57071;SDS011;42956;51.366;11.298;2023-03-31T12:57:25;2.15;;;1.20;;
57071;SDS011;42956;51.366;11.298;2023-03-31T13:02:40;4.05;;;1.60;;
57071;SDS011;42956;51.366;11.298;2023-03-31T13:07:52;2.13;;;1.42;;
57071;SDS011;42956;51.366;11.298;2023-03-31T13:10:27;1.83;;;1.20;;
57071;SDS011;42956;51.366;11.298;2023-03-31T13:13:02;2.00;;;1.02;;
57071;SDS011;42956;51.366;11.298;2023-03-31T13:15:30;2.85;;;1.23;;
57071;SDS011;42956;51.366;11.298;2023-03-31T13:17:59;1.88;;;1.17;;
57071;SDS011;42956;51.366;11.298;2023-03-31T13:20:32;2.10;;;1.73;;
57071;SDS011;42956;51.366;11.298;2023-03-31T13:23:06;2.47;;;1.13;;
57071;SDS011;42956;51.366;11.298;2023-03-31T13:25:42;2.95;;;1.20;;
57071;SDS011;42956;51.366;11.298;2023-03-31T13:30:57;2.90;;;1.10;;
57071;SDS011;42956;51.366;11.298;2023-03-31T13:33:30;2.15;;;1.05;;
57071;SDS011;42956;51.366;11.298;2023-03-31T13:36:03;1.83;;;1.20;;
57071;SDS011;42956;51.366;11.298;2023-03-31T13:38:42;5.68;;;1.30;;
57071;SDS011;42956;51.366;11.298;2023-03-31T13:41:16;3.00;;;1.52;;
57071;SDS011;42956;51.366;11.298;2023-03-31T13:52:15;9.00;;;4.32;;
57071;SDS011;42956;51.366;11.298;2023-03-31T13:55:04;8.75;;;4.80;;
57071;SDS011;42956;51.366;11.298;2023-03-31T13:58:03;4.60;;;2.15;;
57071;SDS011;42956;51.366;11.298;2023-03-31T14:00:54;5.07;;;2.38;;
57071;SDS011;42956;51.366;11.298;2023-03-31T14:03:28;2.47;;;1.52;;
57071;SDS011;42956;51.366;11.298;2023-03-31T14:06:02;8.38;;;5.13;;
57071;SDS011;42956;51.366;11.298;2023-03-31T14:08:35;7.03;;;3.33;;
57071;SDS011;42956;51.366;11.298;2023-03-31T14:11:16;5.32;;;2.53;;
57071;SDS011;42956;51.366;11.298;2023-03-31T14:13:57;5.65;;;1.65;;
57071;SDS011;42956;51.366;11.298;2023-03-31T14:16:25;4.68;;;1.40;;
57071;SDS011;42956;51.366;11.298;2023-03-31T14:18:54;8.40;;;3.40;;
57071;SDS011;42956;51.366;11.298;2023-03-31T14:21:27;5.82;;;3.03;;
57071;SDS011;42956;51.366;11.298;2023-03-31T14:23:59;4.97;;;1.73;;
57071;SDS011;42956;51.366;11.298;2023-03-31T14:26:43;7.57;;;2.78;;
57071;SDS011;42956;51.366;11.298;2023-03-31T14:29:14;4.75;;;1.88;;
57071;SDS011;42956;51.366;11.298;2023-03-31T14:31:47;4.20;;;2.88;;
57071;SDS011;42956;51.366;11.298;2023-03-31T14:34:38;8.00;;;5.60;;
57071;SDS011;42956;51.366;11.298;2023-03-31T14:37:11;12.23;;;8.02;;
57071;SDS011;42956;51.366;11.298;2023-03-31T14:39:41;7.05;;;3.70;;
57071;SDS011;42956;51.366;11.298;2023-03-31T14:42:12;5.47;;;2.03;;
57071;SDS011;42956;51.366;11.298;2023-03-31T14:44:40;6.55;;;5.45;;
57071;SDS011;42956;51.366;11.298;2023-03-31T14:47:13;11.05;;;6.82;;
57071;SDS011;42956;51.366;11.298;2023-03-31T14:49:43;7.82;;;4.35;;
57071;SDS011;42956;51.366;11.298;2023-03-31T14:52:12;6.80;;;5.47;;
57071;SDS011;42956;51.366;11.298;2023-03-31T14:54:40;9.48;;;7.32;;
57071;SDS011;42956;51.366;11.298;2023-03-31T14:57:14;9.57;;;6.90;;
57071;SDS011;42956;51.366;11.298;2023-03-31T14:59:44;6.87;;;5.87;;
57071;SDS011;42956;51.366;11.298;2023-03-31T15:02:13;5.55;;;4.22;;
57071;SDS011;42956;51.366;11.298;2023-03-31T15:04:43;5.47;;;3.70;;
57071;SDS011;42956;51.366;11.298;2023-03-31T15:07:14;2.95;;;1.58;;
57071;SDS011;42956;51.366;11.298;2023-03-31T15:09:44;3.65;;;1.63;;
57071;SDS011;42956;51.366;11.298;2023-03-31T15:12:17;4.15;;;2.08;;
57071;SDS011;42956;51.366;11.298;2023-03-31T15:14:48;4.03;;;2.92;;
57071;SDS011;42956;51.366;11.298;2023-03-31T15:17:20;4.05;;;2.10;;